Time;durP1;ratioP1;P1;durP2;ratioP2;P2;SDS_P1;SDS_P2;PMS_P1;PMS_P2;Temp;Humidity;BMP_temperature;BMP_pressure;BME280_temperature;BME280_humidity;BME280_pressure;Samples;Min_cycle;Max_cycle;Signal;HPM_P1;HPM_P2
2021/11/15 00:00:46;;;;;;;19.85;17.08;;;11.50;80.70;;;;;;4989489;28;20065;-80
2021/11/15 00:03:14;;;;;;;17.58;15.60;;;11.50;80.70;;;;;;4971792;28;20054;-81
2021/11/15 00:05:40;;;;;;;19.35;16.83;;;11.40;80.60;;;;;;4956143;28;20161;-81
2021/11/15 00:08:06;;;;;;;18.85;15.98;;;11.50;80.80;;;;;;4988742;28;20072;-81
2021/11/15 00:10:32;;;;;;;18.50;15.40;;;11.50;80.80;;;;;;4971666;28;20042;-81
2021/11/15 00:12:58;;;;;;;23.20;17.70;;;11.40;80.70;;;;;;4955010;28;20134;-82
2021/11/15 00:15:25;;;;;;;17.80;15.87;;;11.40;80.70;;;;;;4971491;28;20034;-80
2021/11/15 00:17:51;;;;;;;22.55;18.08;;;11.40;80.80;;;;;;4955135;28;20034;-80
2021/11/15 00:20:18;;;;;;;21.67;17.65;;;11.30;80.60;;;;;;4971106;28;20436;-80
2021/11/15 00:22:44;;;;;;;18.33;15.98;;;11.30;80.60;;;;;;4955034;28;20508;-79
2021/11/15 00:25:11;;;;;;;20.23;17.15;;;11.30;80.60;;;;;;4988956;28;20030;-79
2021/11/15 00:27:38;;;;;;;19.42;17.02;;;11.30;80.70;;;;;;4989931;28;20058;-79
2021/11/15 00:30:07;;;;;;;20.27;17.05;;;11.30;80.70;;;;;;4970733;28;20039;-80
2021/11/15 00:32:33;;;;;;;20.27;17.40;;;11.30;80.70;;;;;;4988328;28;20093;-80
2021/11/15 00:34:59;;;;;;;22.58;17.60;;;11.20;80.60;;;;;;4988241;28;20093;-80
2021/11/15 00:37:25;;;;;;;21.58;17.55;;;11.20;80.60;;;;;;4988376;28;20118;-81
2021/11/15 00:39:51;;;;;;;19.58;16.83;;;11.20;80.60;;;;;;4955329;28;20365;-80
2021/11/15 00:42:17;;;;;;;19.15;15.77;;;11.20;80.70;;;;;;4987575;28;20464;-82
2021/11/15 00:44:43;;;;;;;20.85;16.40;;;11.20;80.70;;;;;;4989053;28;20450;-80
2021/11/15 00:47:09;;;;;;;17.60;15.50;;;11.20;80.70;;;;;;4988591;28;20030;-82
2021/11/15 00:49:35;;;;;;;20.30;17.52;;;11.20;80.70;;;;;;4955457;28;20064;-82
2021/11/15 00:52:03;;;;;;;22.77;18.27;;;11.20;80.80;;;;;;4971535;28;20065;-81
2021/11/15 00:54:29;;;;;;;20.67;16.80;;;11.10;80.60;;;;;;4988600;28;20125;-82
2021/11/15 00:56:55;;;;;;;22.17;17.67;;;11.10;80.60;;;;;;4988562;28;20141;-81
2021/11/15 00:59:21;;;;;;;19.80;17.25;;;11.10;80.70;;;;;;4988327;28;20524;-81
2021/11/15 01:01:48;;;;;;;24.73;17.27;;;11.10;80.70;;;;;;4987964;28;20640;-81
2021/11/15 01:04:14;;;;;;;20.05;16.10;;;11.10;80.80;;;;;;4970360;28;20050;-81
2021/11/15 01:06:40;;;;;;;20.23;17.02;;;11.00;80.60;;;;;;4988347;28;20134;-82
2021/11/15 01:09:06;;;;;;;20.67;17.20;;;11.10;80.90;;;;;;4988083;28;20038;-81
2021/11/15 01:11:32;;;;;;;24.30;19.08;;;11.00;81.30;;;;;;4987778;28;20034;-81
2021/11/15 01:14:01;;;;;;;20.73;17.20;;;11.00;80.80;;;;;;4970775;28;20057;-81
2021/11/15 01:16:27;;;;;;;20.75;17.63;;;11.10;81.10;;;;;;4987693;28;20427;-81
2021/11/15 01:18:53;;;;;;;22.58;18.50;;;11.10;81.10;;;;;;4970458;28;20494;-81
2021/11/15 01:21:25;;;;;;;21.92;17.67;;;11.10;81.10;;;;;;4986647;28;20037;-81
2021/11/15 01:23:51;;;;;;;22.42;17.33;;;11.10;81.20;;;;;;4987623;28;20572;-82
2021/11/15 01:26:17;;;;;;;21.73;17.63;;;11.10;81.20;;;;;;4986957;28;20030;-81
2021/11/15 01:28:43;;;;;;;22.77;17.20;;;11.10;81.20;;;;;;4987999;28;20039;-82
2021/11/15 01:31:12;;;;;;;22.13;16.88;;;11.10;81.20;;;;;;4970933;28;20057;-81
2021/11/15 01:33:38;;;;;;;20.90;17.58;;;11.10;81.20;;;;;;4987788;28;20057;-82
2021/11/15 01:36:04;;;;;;;23.90;18.33;;;11.10;81.20;;;;;;4988147;28;20149;-82
2021/11/15 01:38:30;;;;;;;24.02;17.92;;;11.10;81.20;;;;;;4987623;28;20026;-83
2021/11/15 01:40:56;;;;;;;22.73;17.92;;;11.10;81.20;;;;;;4988234;28;20084;-80
2021/11/15 01:43:22;;;;;;;21.73;17.33;;;11.10;81.20;;;;;;4970528;28;20045;-81
2021/11/15 01:45:48;;;;;;;21.38;17.00;;;11.10;81.20;;;;;;4987540;28;20029;-82
2021/11/15 01:48:14;;;;;;;22.55;19.30;;;11.10;81.20;;;;;;4970185;28;20038;-81
2021/11/15 01:50:41;;;;;;;24.58;18.85;;;11.10;81.30;;;;;;4988221;28;20030;-82
2021/11/15 01:53:10;;;;;;;22.52;17.52;;;11.10;81.70;;;;;;4987025;28;20045;-81
2021/11/15 01:55:39;;;;;;;21.15;17.45;;;11.10;81.20;;;;;;4987314;28;20145;-80
2021/11/15 01:58:08;;;;;;;21.33;17.83;;;11.10;81.20;;;;;;4987028;28;20580;-81
2021/11/15 02:00:37;;;;;;;22.40;17.63;;;11.10;81.30;;;;;;4969794;28;20035;-80
2021/11/15 02:03:03;;;;;;;21.20;17.77;;;11.10;81.20;;;;;;4986760;28;20054;-80
2021/11/15 02:05:30;;;;;;;21.15;16.90;;;11.10;81.20;;;;;;4969948;28;20405;-80
2021/11/15 02:07:56;;;;;;;21.45;17.75;;;11.10;81.20;;;;;;4987445;28;20497;-81
2021/11/15 02:10:22;;;;;;;20.52;16.55;;;11.10;81.20;;;;;;4986313;28;20096;-80
2021/11/15 02:12:48;;;;;;;23.25;17.75;;;11.10;81.20;;;;;;4986698;28;20039;-81
2021/11/15 02:15:15;;;;;;;21.55;17.65;;;11.10;81.20;;;;;;4986577;28;20465;-81
2021/11/15 02:17:43;;;;;;;21.25;17.38;;;11.10;81.20;;;;;;4986997;28;20796;-81
2021/11/15 02:20:15;;;;;;;18.98;16.98;;;11.10;81.20;;;;;;4987362;28;20057;-82
2021/11/15 02:22:41;;;;;;;20.30;17.65;;;11.10;81.20;;;;;;4969515;28;20081;-82
2021/11/15 02:25:08;;;;;;;24.45;19.05;;;11.10;81.20;;;;;;4949734;28;20466;-81
2021/11/15 02:27:35;;;;;;;21.52;17.80;;;11.10;81.20;;;;;;4967595;28;20113;-80
2021/11/15 02:30:04;;;;;;;22.83;17.33;;;11.10;81.20;;;;;;4950378;28;20023;-81
2021/11/15 02:32:31;;;;;;;20.58;17.50;;;11.10;81.70;;;;;;4951262;28;20426;-80
2021/11/15 02:34:58;;;;;;;21.60;17.20;;;11.10;81.20;;;;;;4936016;28;20082;-81
2021/11/15 02:37:24;;;;;;;21.02;18.02;;;11.10;81.20;;;;;;4969276;28;20499;-82
2021/11/15 02:39:51;;;;;;;20.38;16.83;;;11.10;81.20;;;;;;4965984;28;20070;-81
2021/11/15 02:42:17;;;;;;;21.13;16.98;;;11.10;81.10;;;;;;4988678;28;20034;-81
2021/11/15 02:44:43;;;;;;;21.90;18.55;;;11.10;81.10;;;;;;4971136;28;20450;-82
2021/11/15 02:47:09;;;;;;;21.05;17.35;;;11.10;81.10;;;;;;4956894;28;20034;-82
2021/11/15 02:49:35;;;;;;;21.15;16.90;;;11.00;80.80;;;;;;4955315;28;20094;-83
2021/11/15 02:52:02;;;;;;;22.05;17.70;;;11.00;80.80;;;;;;4939347;28;20082;-83
2021/11/15 02:54:28;;;;;;;22.65;17.55;;;11.00;81.40;;;;;;4975599;28;20105;-83
2021/11/15 02:56:54;;;;;;;19.50;16.90;;;11.00;80.80;;;;;;4957885;28;20456;-80
2021/11/15 02:59:20;;;;;;;19.95;17.10;;;11.00;80.80;;;;;;4942483;28;20496;-82
2021/11/15 03:01:47;;;;;;;21.52;18.52;;;11.00;80.80;;;;;;4975924;28;20039;-81
2021/11/15 03:04:14;;;;;;;19.05;16.30;;;10.90;80.60;;;;;;4977768;28;20051;-83
2021/11/15 03:06:40;;;;;;;21.27;17.10;;;10.90;80.60;;;;;;4978593;28;20030;-81
2021/11/15 03:09:07;;;;;;;20.00;17.15;;;10.90;80.60;;;;;;4977889;28;20477;-82
2021/11/15 03:11:34;;;;;;;20.67;17.33;;;10.80;80.40;;;;;;4995036;28;20035;-82
2021/11/15 03:14:00;;;;;;;20.85;17.88;;;10.80;80.40;;;;;;4995103;28;20157;-79
2021/11/15 03:16:26;;;;;;;22.27;17.13;;;10.80;80.40;;;;;;4994826;28;20045;-81
2021/11/15 03:18:52;;;;;;;23.95;18.13;;;10.70;80.20;;;;;;4977448;28;20038;-81
2021/11/15 03:21:23;;;;;;;20.17;16.70;;;10.70;80.30;;;;;;4961317;28;20477;-80
2021/11/15 03:23:55;;;;;;;21.13;17.52;;;10.70;80.30;;;;;;4994748;28;20038;-83
2021/11/15 03:26:23;;;;;;;26.13;18.27;;;10.60;80.20;;;;;;4994488;28;20037;-83
2021/11/15 03:28:51;;;;;;;20.20;17.98;;;10.60;80.20;;;;;;4977678;28;20272;-81
2021/11/15 03:31:38;;;;;;;23.33;18.23;;;10.60;80.30;;;;;;4994478;28;20105;-80
2021/11/15 03:34:09;;;;;;;25.35;19.38;;;10.60;80.40;;;;;;4994546;28;20474;-81
2021/11/15 03:36:37;;;;;;;20.83;17.23;;;10.60;80.50;;;;;;4977136;28;20092;-80
2021/11/15 03:39:05;;;;;;;23.40;18.15;;;10.60;80.50;;;;;;4977135;28;20026;-82
2021/11/15 03:41:34;;;;;;;22.92;18.95;;;10.60;80.60;;;;;;4977492;28;20046;-82
2021/11/15 03:44:01;;;;;;;22.88;18.45;;;10.60;80.70;;;;;;4977522;28;20422;-81
2021/11/15 03:46:27;;;;;;;22.02;18.70;;;10.60;80.70;;;;;;4976957;28;20030;-80
2021/11/15 03:48:53;;;;;;;24.73;18.83;;;10.60;80.70;;;;;;4977146;28;20367;-81
2021/11/15 03:51:20;;;;;;;23.63;18.60;;;10.60;80.80;;;;;;4977311;28;20034;-81
2021/11/15 03:53:47;;;;;;;27.00;18.88;;;10.60;80.80;;;;;;4977001;28;20081;-80
2021/11/15 03:56:16;;;;;;;23.45;19.30;;;10.60;80.80;;;;;;4976848;28;20097;-80
2021/11/15 03:58:44;;;;;;;20.67;17.13;;;10.60;81.30;;;;;;4993743;28;20144;-80
2021/11/15 04:01:12;;;;;;;22.20;18.00;;;10.60;80.70;;;;;;4993919;28;20035;-81
2021/11/15 04:03:40;;;;;;;24.83;18.77;;;10.50;80.50;;;;;;4976781;28;20129;-81
2021/11/15 04:06:22;;;;;;;24.30;18.67;;;10.50;80.50;;;;;;4977006;28;20065;-79
2021/11/15 04:08:48;;;;;;;24.90;18.52;;;10.50;80.50;;;;;;4976959;28;20551;-82
2021/11/15 04:11:19;;;;;;;23.20;18.77;;;10.40;80.30;;;;;;4976132;28;20068;-82
2021/11/15 04:13:47;;;;;;;21.17;17.90;;;10.40;80.30;;;;;;4994302;28;20375;-80
2021/11/15 04:16:15;;;;;;;21.90;17.63;;;10.40;80.30;;;;;;4993559;28;20470;-81
2021/11/15 04:18:56;;;;;;;22.80;17.48;;;10.40;80.30;;;;;;4993798;28;20034;-83
2021/11/15 04:21:23;;;;;;;23.83;18.70;;;10.40;80.30;;;;;;4993537;28;20533;-82
2021/11/15 04:23:49;;;;;;;23.92;18.23;;;10.30;80.10;;;;;;4993388;28;20073;-81
2021/11/15 04:26:15;;;;;;;23.50;17.52;;;10.30;80.20;;;;;;4976231;28;20027;-80
2021/11/15 04:28:41;;;;;;;21.80;17.83;;;10.30;80.20;;;;;;4993081;28;20038;-79
2021/11/15 04:31:07;;;;;;;21.80;17.27;;;10.30;80.20;;;;;;4993448;28;20440;-80
2021/11/15 04:33:33;;;;;;;22.90;17.42;;;10.20;80.10;;;;;;4959969;28;20033;-81
2021/11/15 04:35:59;;;;;;;21.63;17.52;;;10.20;80.10;;;;;;4959677;28;20504;-79
2021/11/15 04:38:25;;;;;;;24.08;17.95;;;10.20;80.10;;;;;;4993331;28;20038;-80
2021/11/15 04:40:51;;;;;;;22.58;18.85;;;10.20;80.10;;;;;;4975456;28;20123;-81
2021/11/15 04:43:17;;;;;;;21.95;17.33;;;10.20;80.10;;;;;;4975850;28;20482;-82
2021/11/15 04:45:43;;;;;;;19.88;17.38;;;10.20;80.10;;;;;;4976485;28;20076;-80
2021/11/15 04:48:09;;;;;;;21.88;17.60;;;10.10;79.90;;;;;;4975690;28;20026;-79
2021/11/15 04:50:35;;;;;;;21.33;17.48;;;10.10;79.90;;;;;;4993517;28;20042;-79
2021/11/15 04:53:03;;;;;;;21.30;17.88;;;10.10;79.90;;;;;;4992556;28;20030;-81
2021/11/15 04:55:29;;;;;;;21.77;17.52;;;10.10;79.90;;;;;;4975757;28;20089;-81
2021/11/15 04:57:55;;;;;;;20.52;17.27;;;10.00;79.70;;;;;;4975228;28;20091;-79
2021/11/15 05:00:25;;;;;;;21.30;16.98;;;10.00;79.70;;;;;;4993136;28;20092;-81
2021/11/15 05:02:52;;;;;;;20.55;17.35;;;10.00;79.70;;;;;;4975422;28;20129;-83
2021/11/15 05:05:19;;;;;;;21.00;17.67;;;9.90;79.50;;;;;;4959434;28;20030;-81
2021/11/15 05:07:47;;;;;;;21.95;17.90;;;9.90;79.50;;;;;;4993383;28;20122;-82
2021/11/15 05:10:14;;;;;;;21.85;18.05;;;9.90;79.60;;;;;;4975587;28;20337;-81
2021/11/15 05:12:41;;;;;;;23.42;18.02;;;9.90;79.60;;;;;;4992942;28;20438;-83
2021/11/15 05:15:10;;;;;;;21.67;17.95;;;9.80;79.40;;;;;;4974523;28;20035;-81
2021/11/15 05:17:36;;;;;;;20.38;17.20;;;9.80;79.40;;;;;;4975231;28;20041;-83
2021/11/15 05:20:04;;;;;;;22.83;18.40;;;9.80;79.50;;;;;;4974663;28;20030;-80
2021/11/15 05:22:30;;;;;;;22.45;17.52;;;9.70;79.30;;;;;;4975223;28;20034;-81
2021/11/15 05:24:56;;;;;;;22.20;17.25;;;9.70;79.30;;;;;;4992812;28;20548;-81
2021/11/15 05:27:22;;;;;;;21.58;17.65;;;9.70;79.30;;;;;;4993250;28;20030;-80
2021/11/15 05:29:48;;;;;;;20.20;17.38;;;9.60;79.10;;;;;;4992397;28;20046;-82
2021/11/15 05:32:14;;;;;;;21.25;17.95;;;9.60;79.10;;;;;;4974448;28;20026;-81
2021/11/15 05:34:40;;;;;;;22.23;17.67;;;9.60;79.10;;;;;;4992448;28;20041;-80
2021/11/15 05:37:06;;;;;;;22.65;17.88;;;9.60;79.10;;;;;;4992291;28;20049;-81
2021/11/15 05:39:32;;;;;;;19.48;17.38;;;9.60;79.20;;;;;;4975411;28;20382;-82
2021/11/15 05:41:58;;;;;;;21.08;17.05;;;9.50;79.00;;;;;;4992327;28;20061;-81
2021/11/15 05:44:25;;;;;;;22.73;17.98;;;9.50;79.00;;;;;;4992220;28;20466;-82
2021/11/15 05:46:52;;;;;;;22.35;17.85;;;9.50;79.00;;;;;;4992169;28;20034;-82
2021/11/15 05:49:18;;;;;;;21.65;17.13;;;9.40;78.90;;;;;;4966175;28;20045;-81
2021/11/15 05:51:44;;;;;;;21.73;18.02;;;9.40;78.90;;;;;;4951854;28;20035;-82
2021/11/15 05:54:10;;;;;;;20.08;17.88;;;9.40;78.90;;;;;;4967571;28;20039;-83
2021/11/15 05:56:36;;;;;;;19.80;16.40;;;9.40;78.90;;;;;;4969322;28;20051;-82
2021/11/15 05:59:02;;;;;;;20.58;16.95;;;9.40;78.90;;;;;;4966300;28;20394;-82
2021/11/15 06:01:28;;;;;;;20.27;16.67;;;9.40;79.00;;;;;;4970205;28;20034;-82
2021/11/15 06:03:55;;;;;;;19.90;15.90;;;9.30;78.80;;;;;;4957817;28;20058;-82
2021/11/15 06:06:21;;;;;;;20.20;17.15;;;9.40;79.00;;;;;;4948285;29;20043;-82
2021/11/15 06:08:47;;;;;;;17.90;15.43;;;9.30;78.80;;;;;;4960565;28;20043;-82
2021/11/15 06:11:13;;;;;;;19.45;16.35;;;9.30;78.80;;;;;;4950648;28;20510;-81
2021/11/15 06:13:39;;;;;;;21.27;16.35;;;9.30;78.90;;;;;;4967517;28;20545;-81
2021/11/15 06:16:05;;;;;;;21.05;16.45;;;9.30;78.90;;;;;;4967177;28;20042;-81
2021/11/15 06:18:31;;;;;;;19.73;15.88;;;9.30;78.90;;;;;;4966667;28;20073;-81
2021/11/15 06:20:57;;;;;;;19.25;15.40;;;9.30;78.90;;;;;;4966777;28;20047;-80
2021/11/15 06:23:23;;;;;;;18.48;15.77;;;9.30;79.00;;;;;;4966877;28;20027;-82
2021/11/15 06:25:49;;;;;;;17.92;14.27;;;9.20;78.80;;;;;;4967552;28;20039;-82
2021/11/15 06:28:15;;;;;;;19.25;15.77;;;9.30;79.10;;;;;;4960269;28;20046;-83
2021/11/15 06:30:41;;;;;;;19.20;14.38;;;9.30;79.20;;;;;;4990930;28;20475;-80
2021/11/15 06:33:07;;;;;;;18.05;14.95;;;9.20;79.20;;;;;;4991376;28;20034;-80
2021/11/15 06:35:33;;;;;;;17.65;15.10;;;9.30;79.40;;;;;;4973050;28;20375;-78
2021/11/15 06:37:59;;;;;;;16.45;13.95;;;9.30;79.50;;;;;;4973310;28;20039;-84
2021/11/15 06:40:26;;;;;;;17.70;15.10;;;9.30;79.50;;;;;;4990517;28;20441;-83
2021/11/15 06:42:52;;;;;;;17.98;15.50;;;9.30;79.60;;;;;;4973094;28;20485;-84
2021/11/15 06:45:18;;;;;;;18.13;14.63;;;9.30;79.60;;;;;;4990131;28;20068;-80
2021/11/15 06:47:45;;;;;;;18.60;14.38;;;9.30;79.70;;;;;;4972565;28;20030;-79
2021/11/15 06:50:16;;;;;;;17.92;14.93;;;9.30;79.70;;;;;;4990529;28;20041;-81
2021/11/15 06:52:43;;;;;;;17.30;14.00;;;9.30;79.80;;;;;;4980396;28;20023;-82
2021/11/15 06:55:10;;;;;;;19.95;15.13;;;9.30;79.80;;;;;;4961535;28;20045;-85
2021/11/15 06:57:38;;;;;;;17.58;14.20;;;9.30;79.90;;;;;;4970898;28;20466;-84
2021/11/15 07:00:07;;;;;;;17.00;13.30;;;9.30;79.90;;;;;;4953424;28;20548;-85
2021/11/15 07:02:33;;;;;;;16.00;13.63;;;9.30;80.00;;;;;;4975695;28;20081;-83
2021/11/15 07:04:59;;;;;;;15.68;13.73;;;9.30;80.00;;;;;;4989320;28;20069;-85
2021/11/15 07:07:25;;;;;;;17.77;14.52;;;9.30;80.10;;;;;;4972666;28;20039;-82
2021/11/15 07:09:51;;;;;;;16.20;14.20;;;9.40;80.30;;;;;;4990800;28;20375;-89
2021/11/15 07:12:18;;;;;;;18.98;15.07;;;9.40;80.30;;;;;;4986698;28;20442;-86
2021/11/15 07:14:44;;;;;;;17.23;15.27;;;9.40;80.80;;;;;;4971271;28;20037;-85
2021/11/15 07:17:10;;;;;;;15.88;14.05;;;9.30;80.20;;;;;;4970870;28;20100;-83
2021/11/15 07:19:37;;;;;;;17.42;13.68;;;9.40;80.40;;;;;;4969900;28;20022;-79
2021/11/15 07:22:04;;;;;;;17.15;14.68;;;9.40;80.40;;;;;;4953164;28;20031;-81
2021/11/15 07:24:31;;;;;;;17.13;14.80;;;9.40;80.50;;;;;;4971045;28;20422;-85
2021/11/15 07:26:57;;;;;;;18.25;15.10;;;9.40;80.50;;;;;;4953752;28;20050;-80
2021/11/15 07:29:23;;;;;;;16.35;13.52;;;9.40;81.00;;;;;;4985955;28;20034;-86
2021/11/15 07:31:49;;;;;;;17.33;14.23;;;9.40;80.50;;;;;;4959916;28;20133;-82
2021/11/15 07:34:15;;;;;;;19.85;15.73;;;9.50;80.70;;;;;;4953508;28;20151;-80
2021/11/15 07:36:41;;;;;;;18.98;15.95;;;9.50;80.70;;;;;;4952516;28;20441;-81
2021/11/15 07:39:08;;;;;;;17.33;14.73;;;9.50;80.80;;;;;;4967108;28;20039;-85
2021/11/15 07:41:34;;;;;;;19.60;14.13;;;9.50;80.80;;;;;;4971434;28;20031;-80
2021/11/15 07:44:00;;;;;;;19.23;15.38;;;9.50;80.80;;;;;;4970146;28;20030;-85
2021/11/15 07:46:26;;;;;;;20.05;16.10;;;9.50;80.80;;;;;;4971219;28;20031;-80
2021/11/15 07:48:53;;;;;;;18.92;15.43;;;9.50;80.80;;;;;;4970858;28;20411;-82
2021/11/15 07:51:19;;;;;;;18.50;15.63;;;9.50;80.80;;;;;;4970280;28;20027;-81
2021/11/15 07:53:45;;;;;;;19.38;15.55;;;9.60;81.00;;;;;;4969813;28;20438;-81
2021/11/15 07:56:11;;;;;;;18.15;15.45;;;9.60;81.00;;;;;;4969478;28;20030;-82
2021/11/15 07:58:38;;;;;;;18.77;15.55;;;9.60;80.90;;;;;;4952783;28;20117;-79
2021/11/15 08:01:04;;;;;;;19.48;15.02;;;9.70;81.10;;;;;;4970983;28;20103;-81
2021/11/15 08:03:31;;;;;;;20.25;16.75;;;9.70;81.60;;;;;;4983162;28;20086;-85
2021/11/15 08:05:58;;;;;;;20.77;15.88;;;9.80;81.20;;;;;;4971486;28;20034;-84
2021/11/15 08:08:24;;;;;;;17.52;15.32;;;9.70;81.00;;;;;;4961961;28;20043;-91
2021/11/15 08:10:51;;;;;;;18.10;14.57;;;9.80;81.20;;;;;;4962769;28;20035;-84
2021/11/15 08:13:17;;;;;;;20.02;16.42;;;9.80;81.10;;;;;;4973134;28;20039;-84
2021/11/15 08:15:44;;;;;;;20.58;16.63;;;9.80;81.10;;;;;;4970593;28;20041;-83
2021/11/15 08:18:11;;;;;;;22.42;15.05;;;9.80;81.00;;;;;;4954807;28;20041;-80
2021/11/15 08:20:38;;;;;;;18.25;14.05;;;9.90;81.20;;;;;;4969611;28;20034;-81
2021/11/15 08:23:12;;;;;;;20.08;16.48;;;9.90;81.20;;;;;;4961045;28;20305;-81
2021/11/15 08:25:57;;;;;;;18.30;15.45;;;10.00;81.30;;;;;;4935383;28;20093;-79
2021/11/15 08:28:28;;;;;;;18.67;15.50;;;10.00;81.20;;;;;;4968564;28;20038;-84
2021/11/15 08:30:55;;;;;;;18.20;14.88;;;10.00;81.10;;;;;;4952661;28;20042;-86
2021/11/15 08:33:22;;;;;;;20.23;16.08;;;10.10;81.30;;;;;;4969799;28;20038;-82
2021/11/15 08:35:48;;;;;;;17.35;14.27;;;10.10;81.20;;;;;;4967505;28;20419;-88
2021/11/15 08:38:43;;;;;;;16.63;14.77;;;10.20;81.40;;;;;;4968837;28;20046;-86
2021/11/15 08:41:12;;;;;;;19.92;15.25;;;10.20;81.30;;;;;;4969701;28;20030;-84
2021/11/15 08:43:38;;;;;;;20.00;14.98;;;10.20;81.20;;;;;;4950463;28;20378;-90
2021/11/15 08:46:07;;;;;;;17.33;15.13;;;10.40;81.50;;;;;;4972125;28;20041;-84
2021/11/15 08:48:34;;;;;;;19.48;14.80;;;10.40;81.40;;;;;;4990403;28;20112;-86
2021/11/15 08:51:01;;;;;;;21.80;16.65;;;10.50;81.50;;;;;;4970607;28;20493;-79
2021/11/15 08:53:27;;;;;;;17.25;15.45;;;10.60;81.60;;;;;;4982208;28;20030;-79
2021/11/15 08:55:53;;;;;;;17.35;14.63;;;10.70;82.20;;;;;;4975670;28;20129;-89
2021/11/15 08:58:20;;;;;;;17.98;15.07;;;10.80;81.70;;;;;;4974508;28;20114;-86
2021/11/15 09:00:47;;;;;;;17.67;15.18;;;10.90;81.80;;;;;;4987345;28;20094;-83
2021/11/15 09:03:15;;;;;;;17.95;14.75;;;11.10;81.90;;;;;;4972131;28;20384;-83
2021/11/15 09:05:42;;;;;;;20.13;16.08;;;11.20;81.80;;;;;;4990676;28;20030;-86
2021/11/15 09:08:07;;;;;;;19.08;15.52;;;11.40;81.90;;;;;;4971788;28;20375;-85
2021/11/15 09:10:33;;;;;;;16.63;14.82;;;11.50;81.90;;;;;;4988910;28;20037;-80
2021/11/15 09:12:59;;;;;;;18.92;15.60;;;11.50;81.70;;;;;;4988443;28;20030;-81
2021/11/15 09:15:25;;;;;;;19.42;16.80;;;11.60;81.70;;;;;;4988135;28;20030;-79
2021/11/15 09:17:51;;;;;;;17.98;15.00;;;11.70;81.70;;;;;;4971388;28;20069;-81
2021/11/15 09:20:20;;;;;;;18.30;14.85;;;11.80;82.30;;;;;;4989842;28;20034;-82
2021/11/15 09:22:48;;;;;;;17.30;15.30;;;11.80;81.60;;;;;;4965333;28;20030;-83
2021/11/15 09:25:14;;;;;;;18.35;14.93;;;11.90;81.70;;;;;;4968724;28;20030;-85
2021/11/15 09:27:41;;;;;;;18.42;15.57;;;12.00;81.80;;;;;;4969152;28;20038;-86
2021/11/15 09:30:10;;;;;;;17.70;15.82;;;12.10;81.90;;;;;;4951331;28;20031;-79
2021/11/15 09:32:37;;;;;;;17.83;15.35;;;12.20;81.90;;;;;;4967814;28;20114;-78
2021/11/15 09:35:04;;;;;;;16.80;14.98;;;12.30;81.80;;;;;;4968831;28;20031;-80
2021/11/15 09:37:31;;;;;;;17.10;15.10;;;12.40;81.80;;;;;;4968203;28;20097;-81
2021/11/15 09:39:58;;;;;;;17.42;14.45;;;12.40;81.60;;;;;;4968276;28;20050;-82
2021/11/15 09:42:24;;;;;;;17.15;15.35;;;12.50;81.70;;;;;;4966840;28;20054;-82
2021/11/15 09:44:50;;;;;;;20.63;15.18;;;12.50;81.50;;;;;;4967217;28;20037;-84
2021/11/15 09:47:16;;;;;;;18.83;15.52;;;12.60;81.60;;;;;;4969642;28;20430;-79
2021/11/15 09:49:43;;;;;;;18.00;15.30;;;12.70;81.70;;;;;;4951562;28;20041;-86
2021/11/15 09:52:10;;;;;;;16.90;14.38;;;12.70;81.60;;;;;;4969164;28;20041;-80
2021/11/15 09:54:36;;;;;;;16.92;15.13;;;12.70;81.50;;;;;;4968232;28;20113;-77
2021/11/15 09:57:03;;;;;;;18.08;15.32;;;12.80;81.50;;;;;;4969814;28;20038;-76
2021/11/15 09:59:29;;;;;;;16.42;14.13;;;12.90;81.60;;;;;;4968127;28;20031;-76
2021/11/15 10:01:57;;;;;;;18.00;16.10;;;12.90;81.50;;;;;;4960988;28;20030;-82
2021/11/15 10:04:23;;;;;;;16.52;14.57;;;12.90;81.30;;;;;;4987185;28;20042;-77
2021/11/15 10:06:57;;;;;;;18.02;15.80;;;13.00;81.40;;;;;;4987791;28;20564;-76
2021/11/15 10:09:32;;;;;;;19.77;15.25;;;13.10;81.40;;;;;;4970137;28;20197;-77
2021/11/15 10:12:06;;;;;;;16.63;14.80;;;13.20;81.50;;;;;;4987779;28;20034;-79
2021/11/15 10:14:33;;;;;;;19.40;15.55;;;13.20;81.40;;;;;;4989115;28;20049;-81
2021/11/15 10:17:02;;;;;;;18.70;15.68;;;13.30;81.50;;;;;;4986864;28;20042;-82
2021/11/15 10:19:31;;;;;;;20.80;17.33;;;13.40;81.60;;;;;;4984262;28;20030;-77
2021/11/15 10:22:01;;;;;;;18.17;16.30;;;13.40;81.40;;;;;;4969241;28;20492;-81
2021/11/15 10:24:32;;;;;;;20.77;16.40;;;13.50;81.40;;;;;;4969907;28;20478;-81
2021/11/15 10:27:06;;;;;;;22.35;18.00;;;13.60;81.40;;;;;;4970173;28;20038;-78
2021/11/15 10:29:35;;;;;;;19.42;16.30;;;13.60;81.80;;;;;;4967948;28;20035;-85
2021/11/15 10:32:04;;;;;;;18.45;15.73;;;13.70;81.30;;;;;;4968482;28;20038;-83
2021/11/15 10:34:33;;;;;;;19.55;15.82;;;13.70;81.20;;;;;;4970049;28;20031;-81
2021/11/15 10:37:03;;;;;;;19.98;17.33;;;13.80;81.20;;;;;;4988453;28;20047;-82
2021/11/15 10:39:43;;;;;;;19.85;15.88;;;13.90;81.20;;;;;;4990170;28;20297;-82
2021/11/15 10:42:15;;;;;;;18.92;15.85;;;14.00;81.20;;;;;;4987553;28;20026;-81
2021/11/15 10:45:12;;;;;;;20.65;16.85;;;14.00;81.10;;;;;;4972649;28;20033;-80
2021/11/15 10:47:43;;;;;;;18.70;15.68;;;14.10;81.10;;;;;;4981854;28;20069;-82
2021/11/15 10:50:24;;;;;;;18.10;16.08;;;14.10;80.90;;;;;;4987784;28;20116;-82
2021/11/15 10:53:01;;;;;;;18.30;16.15;;;14.10;80.80;;;;;;4970065;28;20033;-84
2021/11/15 10:55:33;;;;;;;20.67;16.30;;;14.20;80.80;;;;;;4972411;28;20177;-78
2021/11/15 10:57:59;;;;;;;19.50;16.17;;;14.20;80.70;;;;;;4972030;28;20054;-78
2021/11/15 11:00:30;;;;;;;18.85;15.73;;;14.30;80.80;;;;;;4994083;28;20034;-87
2021/11/15 11:03:18;;;;;;;20.30;17.08;;;14.40;80.80;;;;;;4999087;28;20057;-79
2021/11/15 11:05:46;;;;;;;19.90;16.13;;;14.40;80.70;;;;;;4988990;28;20031;-86
2021/11/15 11:08:12;;;;;;;20.70;16.58;;;14.40;80.50;;;;;;4988189;28;20536;-87
2021/11/15 11:10:49;;;;;;;20.02;17.20;;;14.50;80.60;;;;;;4987980;28;20038;-83
2021/11/15 11:13:16;;;;;;;21.80;17.42;;;14.50;80.40;;;;;;5001821;23;20049;-74
2021/11/15 11:15:48;;;;;;;22.77;17.27;;;14.50;80.30;;;;;;4989827;28;20172;-73
2021/11/15 11:18:33;;;;;;;22.40;18.98;;;14.60;80.40;;;;;;4956981;28;20046;-73
2021/11/15 11:26:38;;;;;;;21.70;17.42;;;14.70;80.10;;;;;;4990222;28;20035;-78
2021/11/15 11:29:27;;;;;;;20.42;17.88;;;14.80;80.10;;;;;;4988481;28;20493;-73
2021/11/15 11:32:01;;;;;;;22.23;17.50;;;14.80;80.00;;;;;;4990823;28;20038;-81
2021/11/15 11:34:27;;;;;;;19.85;17.25;;;14.90;80.10;;;;;;4992500;28;20034;-79
2021/11/15 11:36:53;;;;;;;23.42;17.77;;;14.90;80.10;;;;;;4991042;28;20046;-76
2021/11/15 11:39:23;;;;;;;22.48;16.33;;;15.00;80.30;;;;;;4989323;28;20554;-75
2021/11/15 11:41:57;;;;;;;26.17;18.35;;;15.00;80.50;;;;;;4990062;28;20034;-73
2021/11/15 11:44:25;;;;;;;19.65;16.90;;;15.10;80.90;;;;;;4990127;28;20074;-82
2021/11/15 11:46:52;;;;;;;23.85;17.50;;;15.20;81.20;;;;;;4990001;28;20030;-79
2021/11/15 11:49:24;;;;;;;20.80;17.75;;;15.30;81.40;;;;;;4993219;28;20030;-75
2021/11/15 11:51:56;;;;;;;24.08;17.95;;;15.50;81.70;;;;;;4979562;28;20030;-81
2021/11/15 11:54:31;;;;;;;20.13;17.67;;;15.60;81.80;;;;;;4988556;28;20037;-84
2021/11/15 11:57:20;;;;;;;20.58;17.95;;;15.70;81.80;;;;;;4989595;28;20042;-82
2021/11/15 11:59:47;;;;;;;19.92;16.65;;;15.80;81.80;;;;;;4971784;28;20026;-80
2021/11/15 12:02:18;;;;;;;22.02;16.67;;;15.90;81.80;;;;;;4988890;28;20183;-74
2021/11/15 12:04:51;;;;;;;20.17;17.42;;;16.10;82.00;;;;;;4971732;28;20529;-75
2021/11/15 12:07:21;;;;;;;;;;;16.20;81.90;;;;;;4990172;28;20035;-77
2021/11/15 12:09:48;;;;;;;19.83;16.58;;;16.40;82.10;;;;;;4988425;28;19910;-76
2021/11/15 12:12:14;;;;;;;20.23;16.48;;;16.50;81.90;;;;;;4989165;28;20043;-76
2021/11/15 12:14:42;;;;;;;19.77;17.23;;;16.60;81.70;;;;;;4972201;28;20050;-84
2021/11/15 12:17:22;;;;;;;17.80;15.77;;;16.70;81.60;;;;;;4974265;28;20039;-80
2021/11/15 12:19:56;;;;;;;21.08;16.45;;;16.70;81.40;;;;;;4989925;28;20049;-84
2021/11/15 12:22:38;;;;;;;20.40;17.40;;;16.80;81.50;;;;;;4989472;28;20166;-84
2021/11/15 12:25:04;;;;;;;20.67;17.48;;;16.80;81.30;;;;;;4970608;28;20041;-82
2021/11/15 12:27:52;;;;;;;21.25;16.63;;;16.80;81.30;;;;;;4965232;28;20026;-84
2021/11/15 12:30:23;;;;;;;19.85;17.25;;;16.80;81.10;;;;;;4952270;28;20124;-86
2021/11/15 12:33:08;;;;;;;20.52;15.75;;;16.90;81.40;;;;;;4958033;28;20117;-81
2021/11/15 12:35:53;;;;;;;19.48;16.52;;;16.90;81.20;;;;;;4988389;28;20023;-83
2021/11/15 12:38:30;;;;;;;19.35;16.73;;;16.90;81.20;;;;;;4988755;28;20077;-84
2021/11/15 12:40:56;;;;;;;23.40;18.73;;;16.90;81.20;;;;;;4971302;28;20501;-78